Time;durP1;ratioP1;P1;durP2;ratioP2;P2;SDS_P1;SDS_P2;PMS_P1;PMS_P2;Temp;Humidity;BMP_temperature;BMP_pressure;BME280_temperature;BME280_humidity;BME280_pressure;Samples;Min_cycle;Max_cycle;Signal;HPM_P1;HPM_P2
2023/08/01 00:01:29;;;;;;;6.13;3.10;;;19.50;99.90;;;;;;5068759;28;20463;-65
2023/08/01 00:03:54;;;;;;;4.77;3.30;;;19.60;99.90;;;;;;5068745;28;20791;-65
2023/08/01 00:06:21;;;;;;;5.77;4.00;;;19.60;99.90;;;;;;5068466;28;20413;-65
2023/08/01 00:08:47;;;;;;;5.40;2.93;;;19.70;99.90;;;;;;5068375;28;20174;-65
2023/08/01 00:11:14;;;;;;;4.03;2.80;;;19.70;99.90;;;;;;5068352;28;20457;-65
2023/08/01 00:13:40;;;;;;;5.40;3.77;;;19.70;99.90;;;;;;5068645;28;20424;-65
2023/08/01 00:16:06;;;;;;;4.97;3.70;;;19.70;99.90;;;;;;5068386;28;20958;-65
2023/08/01 00:18:32;;;;;;;4.47;3.73;;;19.70;99.90;;;;;;5068565;28;20417;-65
2023/08/01 00:20:58;;;;;;;7.10;3.50;;;19.70;99.90;;;;;;5068253;28;20437;-65
2023/08/01 00:23:24;;;;;;;6.70;3.90;;;19.70;99.90;;;;;;5068361;28;20183;-65
2023/08/01 00:25:51;;;;;;;6.27;2.90;;;19.70;99.90;;;;;;5068297;28;20447;-65
2023/08/01 00:28:22;;;;;;;5.90;3.50;;;19.70;99.90;;;;;;5068264;28;20191;-65
2023/08/01 00:30:47;;;;;;;4.60;3.57;;;19.60;99.90;;;;;;5068109;28;20579;-65
2023/08/01 00:33:14;;;;;;;6.07;3.70;;;19.60;99.90;;;;;;5068172;28;20559;-65
2023/08/01 00:35:40;;;;;;;4.97;3.20;;;19.50;99.90;;;;;;5068058;28;20193;-64
2023/08/01 00:38:06;;;;;;;3.40;3.00;;;19.60;99.90;;;;;;5068095;28;20424;-65
2023/08/01 00:40:32;;;;;;;5.87;3.27;;;19.60;99.90;;;;;;5068009;28;20978;-65
2023/08/01 00:42:58;;;;;;;3.50;3.03;;;19.70;99.90;;;;;;5068099;28;20187;-65
2023/08/01 00:45:24;;;;;;;7.47;4.00;;;19.80;99.90;;;;;;5068038;28;20851;-65
2023/08/01 00:47:51;;;;;;;5.60;3.30;;;19.80;99.90;;;;;;5068103;28;20428;-65
2023/08/01 00:50:20;;;;;;;3.87;3.33;;;19.80;99.90;;;;;;5067932;28;21011;-65
2023/08/01 00:52:46;;;;;;;4.87;3.17;;;19.80;99.90;;;;;;5049609;28;20481;-65
2023/08/01 00:55:13;;;;;;;6.00;3.50;;;19.90;99.90;;;;;;5068018;28;20421;-65
2023/08/01 00:57:38;;;;;;;5.03;3.40;;;19.90;99.90;;;;;;5067957;28;20869;-65
2023/08/01 01:00:05;;;;;;;3.37;3.07;;;20.00;99.90;;;;;;5067865;28;20512;-65
2023/08/01 01:02:30;;;;;;;9.10;3.60;;;20.00;99.90;;;;;;5067970;28;20896;-65
2023/08/01 01:04:56;;;;;;;7.73;3.30;;;20.20;99.90;;;;;;5067822;28;20427;-65
2023/08/01 01:07:23;;;;;;;4.87;3.10;;;20.20;99.90;;;;;;5067906;28;20199;-65
2023/08/01 01:09:50;;;;;;;4.43;4.03;;;20.40;99.90;;;;;;5067818;28;20189;-65
2023/08/01 01:12:16;;;;;;;3.70;2.80;;;20.30;99.90;;;;;;5067808;28;20460;-65
2023/08/01 01:14:41;;;;;;;5.03;2.53;;;20.40;99.90;;;;;;5067785;28;20428;-65
2023/08/01 01:17:07;;;;;;;5.57;2.77;;;20.40;99.90;;;;;;5067739;28;20190;-65
2023/08/01 01:19:32;;;;;;;8.53;3.20;;;20.40;99.90;;;;;;5067943;28;20187;-65
2023/08/01 01:21:58;;;;;;;4.30;3.23;;;20.40;99.90;;;;;;5067947;28;20211;-65
2023/08/01 01:24:25;;;;;;;6.03;3.60;;;20.50;99.90;;;;;;5067917;28;20228;-65
2023/08/01 01:26:52;;;;;;;4.00;3.00;;;20.50;99.90;;;;;;5068159;28;20214;-65
2023/08/01 01:29:18;;;;;;;7.33;3.90;;;20.40;99.90;;;;;;5067722;28;20777;-65
2023/08/01 01:31:45;;;;;;;5.07;3.00;;;20.50;99.90;;;;;;5067707;28;20469;-65
2023/08/01 01:34:11;;;;;;;7.30;3.77;;;20.60;99.90;;;;;;5049442;28;21001;-65
2023/08/01 01:36:37;;;;;;;4.67;2.83;;;20.60;99.90;;;;;;5068067;28;20418;-65
2023/08/01 01:39:03;;;;;;;6.60;3.00;;;20.60;99.90;;;;;;5050094;28;20489;-65
2023/08/01 01:41:28;;;;;;;10.43;4.20;;;20.60;99.90;;;;;;5071036;28;20207;-65
2023/08/01 01:43:54;;;;;;;6.00;3.93;;;20.60;99.90;;;;;;5071219;28;20206;-65
2023/08/01 01:46:19;;;;;;;4.50;3.40;;;20.50;99.90;;;;;;5071107;28;20607;-65
2023/08/01 01:48:45;;;;;;;4.90;3.47;;;20.40;99.90;;;;;;5070997;28;20194;-65
2023/08/01 01:51:11;;;;;;;5.43;3.70;;;20.30;99.90;;;;;;5053037;28;20214;-65
2023/08/01 01:53:36;;;;;;;6.67;3.27;;;20.40;99.90;;;;;;5071005;28;20219;-65
2023/08/01 01:56:02;;;;;;;5.13;3.80;;;20.40;99.90;;;;;;5071026;28;20634;-65
2023/08/01 01:58:27;;;;;;;8.97;4.40;;;20.40;99.90;;;;;;5071377;28;20193;-65
2023/08/01 02:00:53;;;;;;;7.03;3.80;;;20.40;99.90;;;;;;5070813;28;20214;-65
2023/08/01 02:03:18;;;;;;;3.37;2.93;;;20.30;99.90;;;;;;5070953;28;20187;-65
2023/08/01 02:05:45;;;;;;;7.10;3.30;;;20.20;99.90;;;;;;5070756;28;21107;-65
2023/08/01 02:08:10;;;;;;;5.00;3.10;;;20.20;99.90;;;;;;5071033;28;20269;-65
2023/08/01 02:10:36;;;;;;;9.00;3.97;;;20.10;99.90;;;;;;5052889;28;20540;-65
2023/08/01 02:13:01;;;;;;;6.60;3.13;;;20.10;99.90;;;;;;5071068;28;20215;-65
2023/08/01 02:15:27;;;;;;;5.90;3.13;;;20.00;99.90;;;;;;5070886;28;20229;-65
2023/08/01 02:17:53;;;;;;;5.13;3.17;;;20.10;99.90;;;;;;5070561;28;20193;-65
2023/08/01 02:20:18;;;;;;;3.93;3.13;;;20.10;99.90;;;;;;5070555;28;20207;-65
2023/08/01 02:22:44;;;;;;;4.50;3.30;;;20.20;99.90;;;;;;5070836;28;20270;-65
2023/08/01 02:25:09;;;;;;;8.43;3.67;;;20.20;99.90;;;;;;5070513;28;20687;-66
2023/08/01 02:27:35;;;;;;;8.93;3.70;;;20.20;99.90;;;;;;5070449;28;20248;-65
2023/08/01 02:30:01;;;;;;;4.10;2.90;;;20.30;99.90;;;;;;5052236;28;20209;-65
2023/08/01 02:32:26;;;;;;;5.10;3.20;;;20.30;99.90;;;;;;5070107;28;20228;-65
2023/08/01 02:34:52;;;;;;;6.10;3.20;;;20.40;99.90;;;;;;5070519;28;20191;-65
2023/08/01 02:37:17;;;;;;;3.57;2.80;;;20.40;99.90;;;;;;5052278;28;20652;-65
2023/08/01 02:39:43;;;;;;;6.43;3.47;;;20.40;99.90;;;;;;5070307;28;20185;-65
2023/08/01 02:42:09;;;;;;;6.80;3.17;;;20.40;99.90;;;;;;5070302;28;20218;-65
2023/08/01 02:44:34;;;;;;;6.23;3.27;;;20.40;99.90;;;;;;5070360;28;20269;-65
2023/08/01 02:47:00;;;;;;;6.03;2.97;;;20.40;99.90;;;;;;5070334;28;20689;-65
2023/08/01 02:49:25;;;;;;;3.40;3.07;;;20.40;99.90;;;;;;5070160;28;20187;-65
2023/08/01 02:51:51;;;;;;;5.10;2.97;;;20.40;99.90;;;;;;5070036;28;20231;-65
2023/08/01 02:54:17;;;;;;;9.27;4.00;;;20.40;99.90;;;;;;5070216;28;20617;-65
2023/08/01 02:56:42;;;;;;;5.23;2.80;;;20.40;99.90;;;;;;5070213;28;20190;-65
2023/08/01 02:59:09;;;;;;;6.03;3.23;;;20.40;99.90;;;;;;5070315;28;20186;-65
2023/08/01 03:01:35;;;;;;;3.83;3.13;;;20.40;99.90;;;;;;5070283;28;20654;-64
2023/08/01 03:04:05;;;;;;;6.63;3.43;;;20.40;99.90;;;;;;5070104;28;20435;-65
2023/08/01 03:06:32;;;;;;;5.03;3.30;;;20.40;99.90;;;;;;5070387;28;20413;-65
2023/08/01 03:08:57;;;;;;;12.97;3.60;;;20.40;99.90;;;;;;5070353;28;20416;-64
2023/08/01 03:11:23;;;;;;;5.00;3.73;;;20.40;99.90;;;;;;5070226;28;20440;-64
2023/08/01 03:13:49;;;;;;;9.30;3.30;;;20.40;99.90;;;;;;5070264;28;20185;-64
2023/08/01 03:16:14;;;;;;;6.70;3.87;;;20.40;99.90;;;;;;5070187;28;20240;-64
2023/08/01 03:18:40;;;;;;;3.80;2.93;;;20.30;99.90;;;;;;5070485;28;20180;-64
2023/08/01 03:21:06;;;;;;;5.53;3.10;;;20.30;99.90;;;;;;5051679;28;20245;-65
2023/08/01 03:23:31;;;;;;;5.67;3.30;;;20.30;99.90;;;;;;5069878;28;20992;-65
2023/08/01 03:25:57;;;;;;;10.27;3.37;;;20.30;99.90;;;;;;5069771;28;20277;-65
2023/08/01 03:28:26;;;;;;;5.43;3.70;;;20.30;99.90;;;;;;5069620;28;20179;-65
2023/08/01 03:30:53;;;;;;;6.80;3.90;;;20.30;99.90;;;;;;5069178;28;20955;-65
2023/08/01 03:33:19;;;;;;;9.13;3.47;;;20.30;99.90;;;;;;5069201;28;20460;-65
2023/08/01 03:35:44;;;;;;;4.80;3.37;;;20.30;99.90;;;;;;5069259;28;20928;-65
2023/08/01 03:38:10;;;;;;;4.93;3.30;;;20.30;99.90;;;;;;5069071;28;20511;-65
2023/08/01 03:40:36;;;;;;;3.00;2.70;;;20.30;99.90;;;;;;5069021;28;20195;-66
2023/08/01 03:43:01;;;;;;;5.20;3.53;;;20.30;99.90;;;;;;5069180;28;20191;-65
2023/08/01 03:45:27;;;;;;;4.63;3.27;;;20.30;99.90;;;;;;5068912;28;20185;-65
2023/08/01 03:47:52;;;;;;;6.13;3.63;;;20.30;99.90;;;;;;5068863;28;20187;-64
2023/08/01 03:50:18;;;;;;;5.70;3.30;;;20.30;99.90;;;;;;5068801;28;20206;-65
2023/08/01 03:52:45;;;;;;;6.83;2.97;;;20.30;99.90;;;;;;5068868;28;20654;-65
2023/08/01 03:55:11;;;;;;;7.30;3.50;;;20.30;99.90;;;;;;5068688;28;20187;-65
2023/08/01 03:57:38;;;;;;;6.90;3.20;;;20.20;99.90;;;;;;5068557;28;20823;-64
2023/08/01 04:00:13;;;;;;;8.13;3.20;;;20.20;99.90;;;;;;5068787;28;20760;-65
2023/08/01 04:02:40;;;;;;;7.43;2.80;;;20.20;99.90;;;;;;5068061;28;20453;-65
2023/08/01 04:05:06;;;;;;;7.07;4.07;;;20.20;99.90;;;;;;5068484;28;20926;-65
2023/08/01 04:07:31;;;;;;;4.73;3.60;;;20.20;99.90;;;;;;5068605;28;20421;-65
2023/08/01 04:09:57;;;;;;;3.33;2.70;;;20.20;99.90;;;;;;5068162;28;20183;-64
2023/08/01 04:12:22;;;;;;;6.97;3.07;;;20.20;99.90;;;;;;5067311;28;20703;-64
2023/08/01 04:14:48;;;;;;;4.40;3.50;;;20.10;99.90;;;;;;5067744;28;20274;-66
2023/08/01 04:17:13;;;;;;;5.10;3.30;;;20.10;99.90;;;;;;5067683;28;20195;-64
2023/08/01 04:19:39;;;;;;;4.30;2.90;;;20.10;99.90;;;;;;5067709;28;20278;-65
2023/08/01 04:22:05;;;;;;;4.80;3.50;;;20.10;99.90;;;;;;5067583;28;20645;-64
2023/08/01 04:24:30;;;;;;;6.47;3.53;;;20.10;99.90;;;;;;5067765;28;20258;-66
2023/08/01 04:26:56;;;;;;;5.43;2.90;;;20.10;99.90;;;;;;5068084;28;20175;-64
2023/08/01 04:29:22;;;;;;;6.80;3.63;;;20.10;99.90;;;;;;5067351;28;20269;-65
2023/08/01 04:31:47;;;;;;;4.03;2.80;;;20.10;99.90;;;;;;5067171;28;20211;-65
2023/08/01 04:34:13;;;;;;;4.70;2.80;;;20.10;99.90;;;;;;5067435;28;20221;-65
2023/08/01 04:36:39;;;;;;;8.20;3.40;;;20.10;99.90;;;;;;5067278;28;20308;-63
2023/08/01 04:39:05;;;;;;;4.80;3.13;;;20.10;99.90;;;;;;5067298;28;20439;-65
2023/08/01 04:41:31;;;;;;;8.23;3.23;;;20.10;99.90;;;;;;5067126;28;20230;-65
2023/08/01 04:43:56;;;;;;;4.97;2.77;;;20.00;99.90;;;;;;5067288;28;20449;-65
2023/08/01 04:46:22;;;;;;;4.77;3.30;;;19.90;99.90;;;;;;5067778;28;20182;-65
2023/08/01 04:48:47;;;;;;;4.40;2.80;;;19.90;99.90;;;;;;5067320;28;20249;-64
2023/08/01 04:51:13;;;;;;;5.80;3.57;;;20.00;99.90;;;;;;5067201;28;20202;-64
2023/08/01 04:53:39;;;;;;;3.73;3.33;;;20.00;99.90;;;;;;5067685;28;20640;-65
2023/08/01 04:56:05;;;;;;;7.63;3.70;;;20.00;99.90;;;;;;5066876;28;20186;-64
2023/08/01 04:58:30;;;;;;;5.80;3.33;;;19.90;99.90;;;;;;5066752;28;20265;-65
2023/08/01 05:00:56;;;;;;;13.33;3.47;;;19.90;99.90;;;;;;5066761;28;20516;-65
2023/08/01 05:03:21;;;;;;;6.90;3.67;;;19.90;99.90;;;;;;5066692;28;20248;-65
2023/08/01 05:05:48;;;;;;;6.57;3.80;;;19.90;99.90;;;;;;5066741;28;20269;-65
2023/08/01 05:08:13;;;;;;;5.33;3.83;;;19.90;99.90;;;;;;5067246;28;20193;-64
2023/08/01 05:10:39;;;;;;;6.83;3.10;;;20.00;99.90;;;;;;5067201;28;20441;-64
2023/08/01 05:13:05;;;;;;;9.60;4.30;;;19.90;99.90;;;;;;5066910;28;20207;-65
2023/08/01 05:15:30;;;;;;;8.53;4.17;;;20.00;99.90;;;;;;5069545;28;20269;-64
2023/08/01 05:17:56;;;;;;;10.73;4.07;;;19.90;99.90;;;;;;5035700;28;20516;-64
2023/08/01 05:20:22;;;;;;;8.07;3.83;;;20.00;99.90;;;;;;5070466;28;20205;-64
2023/08/01 05:22:47;;;;;;;6.53;3.80;;;20.00;99.90;;;;;;5070380;28;20183;-65
2023/08/01 05:25:13;;;;;;;4.97;4.00;;;20.00;99.90;;;;;;5070293;28;20838;-65
2023/08/01 05:27:39;;;;;;;6.77;3.97;;;20.10;99.90;;;;;;5070376;28;20210;-65
2023/08/01 05:30:05;;;;;;;8.80;3.77;;;20.10;99.90;;;;;;5051987;28;20195;-64
2023/08/01 05:32:30;;;;;;;6.03;4.00;;;20.10;99.90;;;;;;5069780;28;20587;-65
2023/08/01 05:34:56;;;;;;;5.90;4.03;;;20.10;99.90;;;;;;5069929;28;20427;-65
2023/08/01 05:37:21;;;;;;;7.83;3.97;;;20.20;99.90;;;;;;5070319;28;20234;-64
2023/08/01 05:39:47;;;;;;;4.97;3.40;;;20.20;99.90;;;;;;5069895;28;20186;-64
2023/08/01 05:42:12;;;;;;;9.07;3.67;;;20.20;99.90;;;;;;5070227;28;20232;-64
2023/08/01 05:44:38;;;;;;;4.30;3.63;;;20.20;99.90;;;;;;5070071;28;20679;-64
2023/08/01 05:47:04;;;;;;;4.47;3.43;;;20.20;99.90;;;;;;5069648;28;20190;-64
2023/08/01 05:49:29;;;;;;;5.57;3.47;;;20.30;99.90;;;;;;5069666;28;20186;-64
2023/08/01 05:51:55;;;;;;;3.40;2.80;;;20.30;99.90;;;;;;5069768;28;20302;-65
2023/08/01 05:54:21;;;;;;;4.80;2.93;;;20.30;99.90;;;;;;5069771;28;20183;-65
2023/08/01 05:56:46;;;;;;;4.47;3.10;;;20.40;99.90;;;;;;5070313;28;20183;-65
2023/08/01 05:59:12;;;;;;;8.40;3.10;;;20.40;99.90;;;;;;5070044;28;20731;-64
2023/08/01 06:01:38;;;;;;;3.97;2.97;;;20.40;99.90;;;;;;5070163;28;20203;-65
2023/08/01 06:04:03;;;;;;;4.63;2.87;;;20.40;99.90;;;;;;5070157;28;20559;-64
2023/08/01 06:06:29;;;;;;;3.37;2.37;;;20.50;99.90;;;;;;5070346;28;20270;-65
2023/08/01 06:08:55;;;;;;;4.80;2.30;;;20.50;99.90;;;;;;5069989;28;20182;-65
2023/08/01 06:11:21;;;;;;;3.30;2.50;;;20.50;99.90;;;;;;5069631;28;20284;-65
2023/08/01 06:13:47;;;;;;;3.93;2.53;;;20.50;99.90;;;;;;5069536;28;21110;-65
2023/08/01 06:16:12;;;;;;;6.33;2.83;;;20.50;99.90;;;;;;5069456;28;20188;-65
2023/08/01 06:18:38;;;;;;;6.77;2.93;;;20.50;99.90;;;;;;5069275;28;20650;-65
2023/08/01 06:21:03;;;;;;;3.47;2.83;;;20.40;99.90;;;;;;5069000;28;20631;-65
2023/08/01 06:23:29;;;;;;;6.87;4.03;;;20.40;99.90;;;;;;5069104;28;20198;-65
2023/08/01 06:25:55;;;;;;;4.37;2.97;;;20.40;99.90;;;;;;5068736;28;20667;-65
2023/08/01 06:28:20;;;;;;;8.60;3.73;;;20.30;99.90;;;;;;5069029;28;20341;-65
2023/08/01 06:30:46;;;;;;;6.70;3.80;;;20.30;99.90;;;;;;5068647;28;20218;-65
2023/08/01 06:33:11;;;;;;;6.20;4.40;;;20.20;99.90;;;;;;5068754;28;20290;-65
2023/08/01 06:35:37;;;;;;;5.33;3.90;;;20.20;99.90;;;;;;5068877;28;20494;-65
2023/08/01 06:38:02;;;;;;;5.93;4.43;;;20.20;99.90;;;;;;5068874;28;20549;-64
2023/08/01 06:40:28;;;;;;;5.37;3.90;;;20.10;99.90;;;;;;5068550;28;20194;-65
2023/08/01 06:42:54;;;;;;;5.30;3.97;;;20.10;99.90;;;;;;5068642;28;20651;-65
2023/08/01 06:45:19;;;;;;;7.60;4.73;;;20.10;99.90;;;;;;5050256;28;20184;-65
2023/08/01 06:47:45;;;;;;;11.20;5.03;;;20.10;99.90;;;;;;5068435;28;20190;-65
2023/08/01 06:50:10;;;;;;;8.53;4.73;;;20.10;99.90;;;;;;5068273;28;20210;-65
2023/08/01 06:52:36;;;;;;;7.00;4.40;;;20.10;99.90;;;;;;5068277;28;20298;-64
2023/08/01 06:55:02;;;;;;;6.80;4.60;;;20.10;99.90;;;;;;5068648;28;20179;-64
2023/08/01 06:57:27;;;;;;;8.50;4.73;;;20.00;99.90;;;;;;5068401;28;20185;-64
2023/08/01 06:59:53;;;;;;;6.63;4.33;;;20.00;99.90;;;;;;5068208;28;20198;-64
2023/08/01 07:02:18;;;;;;;7.00;4.50;;;20.00;99.90;;;;;;5068323;28;20190;-65
2023/08/01 07:04:44;;;;;;;6.20;4.87;;;20.10;99.90;;;;;;5068404;28;20175;-64
2023/08/01 07:07:10;;;;;;;6.80;3.80;;;20.00;99.90;;;;;;5068428;28;20194;-65
2023/08/01 07:09:35;;;;;;;5.07;3.90;;;19.90;99.90;;;;;;5068094;28;20621;-65
2023/08/01 07:12:01;;;;;;;6.10;4.17;;;20.00;99.90;;;;;;5067789;28;20222;-65
2023/08/01 07:14:27;;;;;;;6.80;4.67;;;20.00;99.90;;;;;;5067978;28;20183;-65
2023/08/01 07:16:52;;;;;;;8.00;4.90;;;19.90;99.90;;;;;;5067925;28;20425;-65
2023/08/01 07:19:18;;;;;;;7.20;4.60;;;19.90;99.90;;;;;;5049566;28;20177;-64
2023/08/01 07:21:46;;;;;;;7.03;4.27;;;19.90;99.90;;;;;;5068080;28;20206;-65
2023/08/01 07:24:13;;;;;;;6.20;4.43;;;19.90;99.90;;;;;;5068181;28;20205;-65
2023/08/01 07:26:39;;;;;;;8.17;4.93;;;19.80;99.90;;;;;;5067826;28;20467;-65
2023/08/01 07:29:04;;;;;;;6.23;4.03;;;19.70;99.90;;;;;;5067659;28;20999;-65
2023/08/01 07:31:30;;;;;;;8.27;4.47;;;19.80;99.90;;;;;;5067564;28;20219;-65
2023/08/01 07:33:56;;;;;;;5.00;3.87;;;19.70;99.90;;;;;;5067625;28;20187;-65
2023/08/01 07:36:21;;;;;;;6.07;4.17;;;19.80;99.90;;;;;;5067323;28;20190;-65
2023/08/01 07:38:47;;;;;;;8.23;4.20;;;19.70;99.90;;;;;;5067221;28;20181;-65
2023/08/01 07:41:12;;;;;;;5.73;3.77;;;19.80;99.90;;;;;;5067336;28;20206;-65
2023/08/01 07:43:38;;;;;;;5.93;3.60;;;19.80;99.90;;;;;;5067641;28;20245;-65
2023/08/01 07:46:03;;;;;;;6.57;4.30;;;19.90;99.90;;;;;;5067697;28;20720;-65
2023/08/01 07:48:29;;;;;;;5.83;4.70;;;19.90;99.90;;;;;;5067805;28;20190;-65
2023/08/01 07:50:55;;;;;;;5.87;4.10;;;19.90;99.90;;;;;;5068316;28;20297;-65
2023/08/01 07:53:20;;;;;;;6.67;4.13;;;19.90;99.90;;;;;;5067812;28;20226;-65
2023/08/01 07:55:46;;;;;;;8.53;3.93;;;19.80;99.90;;;;;;5067804;28;20188;-64
2023/08/01 07:58:11;;;;;;;5.80;3.63;;;19.80;99.90;;;;;;5068185;28;20190;-65
2023/08/01 08:00:37;;;;;;;5.20;3.80;;;19.80;99.90;;;;;;5049459;28;20206;-64
2023/08/01 08:03:03;;;;;;;5.13;3.90;;;19.80;99.90;;;;;;5067396;28;20180;-65
2023/08/01 08:05:28;;;;;;;6.57;3.93;;;19.70;99.90;;;;;;5067068;28;20243;-65
2023/08/01 08:07:54;;;;;;;7.70;4.37;;;19.60;99.90;;;;;;5067022;28;20553;-64
2023/08/01 08:10:20;;;;;;;8.80;4.63;;;19.50;99.90;;;;;;5067435;28;20263;-65
2023/08/01 08:12:45;;;;;;;6.10;3.30;;;19.30;99.90;;;;;;5066959;28;20720;-65
2023/08/01 08:15:13;;;;;;;5.00;3.37;;;19.20;99.90;;;;;;5067157;28;20183;-64
2023/08/01 08:17:38;;;;;;;6.50;3.50;;;18.90;99.90;;;;;;5066950;28;20195;-64
2023/08/01 08:20:06;;;;;;;8.37;4.30;;;18.80;99.90;;;;;;5066919;28;20452;-64
2023/08/01 08:22:31;;;;;;;5.20;3.60;;;18.70;99.90;;;;;;5066944;28;20190;-65
2023/08/01 08:24:57;;;;;;;9.07;4.60;;;18.50;99.90;;;;;;5066920;28;20416;-64
2023/08/01 08:27:22;;;;;;;7.10;4.10;;;18.30;99.90;;;;;;5067243;28;20210;-64
2023/08/01 08:29:48;;;;;;;4.73;3.40;;;18.10;99.90;;;;;;5067283;28;20267;-65
2023/08/01 08:32:14;;;;;;;9.03;3.80;;;17.90;99.90;;;;;;5067134;28;20208;-65
2023/08/01 08:34:39;;;;;;;4.40;3.37;;;17.80;99.90;;;;;;5067345;28;20281;-64
2023/08/01 08:37:05;;;;;;;6.83;3.73;;;17.70;99.90;;;;;;5067995;28;20718;-65
2023/08/01 08:39:31;;;;;;;4.87;3.40;;;17.80;99.90;;;;;;5067942;28;20231;-64
2023/08/01 08:41:57;;;;;;;5.80;3.83;;;17.70;99.90;;;;;;5067459;28;20643;-64
2023/08/01 08:44:24;;;;;;;3.80;3.00;;;17.70;99.90;;;;;;5067216;28;20596;-64
2023/08/01 08:46:52;;;;;;;6.07;3.40;;;17.60;99.90;;;;;;5067147;28;20420;-64
2023/08/01 08:49:21;;;;;;;4.93;3.20;;;17.70;99.90;;;;;;5070607;28;20488;-63
2023/08/01 08:51:48;;;;;;;5.90;2.30;;;17.70;99.90;;;;;;5071494;28;20446;-64
2023/08/01 08:54:15;;;;;;;4.33;3.03;;;17.70;99.90;;;;;;5071645;28;20449;-64
2023/08/01 08:56:41;;;;;;;4.03;2.53;;;17.70;99.90;;;;;;5071473;28;20796;-64
2023/08/01 08:59:10;;;;;;;4.30;2.43;;;17.60;99.90;;;;;;5071293;28;20410;-64
2023/08/01 09:01:36;;;;;;;2.60;2.40;;;17.60;99.90;;;;;;5071007;28;20567;-65
2023/08/01 09:04:02;;;;;;;2.30;2.10;;;17.70;99.90;;;;;;5052675;28;20488;-64
2023/08/01 09:06:49;;;;;;;3.50;2.50;;;17.70;99.90;;;;;;5071317;28;20486;-64
2023/08/01 09:09:15;;;;;;;2.63;2.20;;;17.70;99.90;;;;;;5070952;28;20425;-64
2023/08/01 09:11:49;;;;;;;6.23;2.37;;;17.70;99.90;;;;;;5070689;28;20987;-64
2023/08/01 09:14:15;;;;;;;2.97;2.17;;;17.80;99.90;;;;;;5070554;28;20920;-64
2023/08/01 09:16:42;;;;;;;2.50;1.70;;;17.80;99.90;;;;;;5070526;28;20448;-64
2023/08/01 09:19:08;;;;;;;3.10;2.23;;;17.70;99.90;;;;;;5070625;28;20542;-64
2023/08/01 09:21:38;;;;;;;2.07;1.50;;;17.80;99.90;;;;;;5070670;28;20452;-65
2023/08/01 09:24:14;;;;;;;1.40;1.30;;;17.80;99.90;;;;;;5071010;28;20463;-64
2023/08/01 09:26:40;;;;;;;1.80;1.43;;;17.80;99.90;;;;;;5070825;28;20444;-65
2023/08/01 09:29:06;;;;;;;1.10;1.00;;;17.80;99.90;;;;;;5070197;28;20487;-64
2023/08/01 09:31:40;;;;;;;1.40;1.17;;;17.70;99.90;;;;;;5070001;28;20440;-64
2023/08/01 09:34:21;;;;;;;1.80;1.03;;;17.80;99.90;;;;;;5069895;28;20426;-64
2023/08/01 09:36:47;;;;;;;1.67;1.20;;;17.80;99.90;;;;;;5069814;28;20422;-65
2023/08/01 09:39:18;;;;;;;1.47;1.03;;;18.00;99.90;;;;;;5069850;28;20421;-64
2023/08/01 09:41:43;;;;;;;1.27;1.10;;;18.10;99.90;;;;;;5069729;28;21015;-64
2023/08/01 09:44:15;;;;;;;2.73;1.40;;;18.20;99.90;;;;;;5069679;28;20420;-64
2023/08/01 09:46:42;;;;;;;4.10;1.20;;;18.20;99.90;;;;;;5069718;28;20256;-64
2023/08/01 09:49:11;;;;;;;1.93;1.10;;;18.20;99.90;;;;;;5069530;28;20423;-65
2023/08/01 09:51:50;;;;;;;1.77;1.00;;;18.30;99.90;;;;;;5069594;28;20424;-64
2023/08/01 09:54:17;;;;;;;2.37;1.20;;;18.30;99.90;;;;;;5051497;28;20426;-65
2023/08/01 09:56:47;;;;;;;3.10;1.10;;;18.30;99.90;;;;;;5069550;28;20420;-64
2023/08/01 09:59:16;;;;;;;1.90;1.03;;;18.30;99.90;;;;;;5069403;28;20426;-64
2023/08/01 10:01:43;;;;;;;1.20;0.70;;;18.30;99.90;;;;;;5068846;28;20441;-64
2023/08/01 10:04:11;;;;;;;1.00;0.80;;;18.30;99.90;;;;;;5069327;28;20482;-65
2023/08/01 10:06:38;;;;;;;2.63;0.90;;;18.30;99.90;;;;;;5069283;28;20872;-65
2023/08/01 10:09:05;;;;;;;1.33;1.00;;;18.30;99.90;;;;;;5069278;28;20439;-66
2023/08/01 10:11:34;;;;;;;1.33;1.00;;;18.30;99.90;;;;;;5069235;28;20823;-65
2023/08/01 10:14:02;;;;;;;1.40;1.07;;;18.40;99.90;;;;;;5069438;28;20815;-65
2023/08/01 10:16:29;;;;;;;1.00;0.80;;;18.30;99.90;;;;;;5069120;28;20477;-64
2023/08/01 10:18:55;;;;;;;1.00;0.90;;;18.30;99.90;;;;;;5069259;28;20423;-64
2023/08/01 10:21:21;;;;;;;0.90;0.60;;;18.30;99.90;;;;;;5068853;28;20771;-65
2023/08/01 10:23:48;;;;;;;1.40;0.70;;;18.30;99.90;;;;;;5069163;28;21218;-65
2023/08/01 10:26:14;;;;;;;1.50;1.10;;;18.30;99.90;;;;;;5069201;28;20784;-65
2023/08/01 10:28:48;;;;;;;0.90;0.60;;;18.30;99.90;;;;;;5069246;28;20464;-63
2023/08/01 10:31:15;;;;;;;1.10;0.70;;;18.40;99.90;;;;;;5069141;28;20592;-65
2023/08/01 10:33:43;;;;;;;1.10;0.80;;;18.30;99.90;;;;;;5068855;28;20510;-65
2023/08/01 10:36:17;;;;;;;1.10;0.70;;;18.30;99.90;;;;;;5068816;28;20417;-65
2023/08/01 10:38:55;;;;;;;1.00;0.70;;;18.20;99.90;;;;;;5069251;28;20423;-65
2023/08/01 10:41:28;;;;;;;1.40;0.90;;;18.10;99.90;;;;;;5069064;28;20796;-64
2023/08/01 10:44:12;;;;;;;1.73;0.87;;;18.10;99.90;;;;;;5068851;28;20482;-65
2023/08/01 10:46:56;;;;;;;1.07;0.70;;;18.00;99.90;;;;;;5068890;28;20432;-65
2023/08/01 10:49:41;;;;;;;0.80;0.60;;;18.00;99.90;;;;;;5068945;28;20432;-65
2023/08/01 10:52:16;;;;;;;0.90;0.50;;;18.00;99.90;;;;;;5069145;28;20924;-66
2023/08/01 10:54:42;;;;;;;1.10;0.80;;;18.20;99.90;;;;;;5068787;28;20750;-63
2023/08/01 10:57:08;;;;;;;1.63;0.60;;;18.40;99.90;;;;;;5068689;28;20437;-65
2023/08/01 10:59:34;;;;;;;2.00;0.60;;;18.80;99.90;;;;;;5068535;28;20552;-64
2023/08/01 11:02:01;;;;;;;1.40;0.63;;;19.10;99.90;;;;;;5068453;28;20210;-65
2023/08/01 11:04:26;;;;;;;1.00;0.60;;;19.50;99.90;;;;;;5068237;28;20423;-65
2023/08/01 11:06:56;;;;;;;2.30;0.70;;;19.70;99.90;;;;;;5068632;28;20802;-65
2023/08/01 11:09:23;;;;;;;1.10;0.70;;;19.60;99.90;;;;;;5068481;28;20193;-65
2023/08/01 11:11:57;;;;;;;1.30;0.77;;;19.60;99.90;;;;;;5067002;28;20444;-65
2023/08/01 11:14:25;;;;;;;1.20;0.70;;;19.40;99.90;;;;;;5068093;28;20501;-65
2023/08/01 11:16:53;;;;;;;1.00;0.70;;;19.40;99.90;;;;;;5067956;28;20453;-65
2023/08/01 11:19:27;;;;;;;1.67;1.00;;;19.40;99.90;;;;;;5068020;28;20416;-65
2023/08/01 11:21:57;;;;;;;1.00;0.80;;;19.40;99.90;;;;;;5067879;28;20425;-65
2023/08/01 11:24:24;;;;;;;0.90;0.60;;;19.50;99.90;;;;;;5067910;28;20741;-65
2023/08/01 11:26:51;;;;;;;2.60;0.87;;;19.60;99.90;;;;;;5049930;28;20424;-65
2023/08/01 11:29:18;;;;;;;2.60;1.03;;;19.80;99.90;;;;;;5067603;28;20561;-65
2023/08/01 11:31:59;;;;;;;1.93;0.60;;;20.40;99.90;;;;;;5067579;28;20457;-64
2023/08/01 11:34:25;;;;;;;1.20;0.80;;;21.00;99.90;;;;;;5067676;28;20435;-65
2023/08/01 11:36:51;;;;;;;1.53;0.87;;;21.30;99.90;;;;;;5068073;28;20420;-66
2023/08/01 11:39:17;;;;;;;1.90;0.83;;;21.50;99.90;;;;;;5067636;28;20445;-65
2023/08/01 11:41:44;;;;;;;0.90;0.70;;;21.60;99.90;;;;;;5067491;28;20433;-65
2023/08/01 11:44:11;;;;;;;1.60;1.10;;;21.60;99.90;;;;;;5067377;28;20839;-65
2023/08/01 11:46:37;;;;;;;2.43;1.00;;;21.50;99.90;;;;;;5067399;28;20436;-65
2023/08/01 11:49:05;;;;;;;6.10;1.07;;;21.20;99.90;;;;;;5067245;28;20414;-65
2023/08/01 11:51:43;;;;;;;1.43;0.80;;;21.30;99.90;;;;;;5067258;28;20429;-66
2023/08/01 11:54:11;;;;;;;1.20;0.90;;;21.20;99.90;;;;;;5067319;28;20503;-65
2023/08/01 11:56:38;;;;;;;3.40;1.10;;;21.00;99.90;;;;;;5067528;28;20757;-65
2023/08/01 11:59:12;;;;;;;1.97;1.20;;;21.00;99.90;;;;;;5048867;28;20487;-65
2023/08/01 12:01:39;;;;;;;1.80;0.90;;;20.90;99.90;;;;;;5066997;28;20778;-65
2023/08/01 12:04:05;;;;;;;0.90;0.80;;;20.80;99.90;;;;;;5067009;28;20434;-65
2023/08/01 12:06:32;;;;;;;3.03;0.90;;;21.00;99.90;;;;;;5067111;28;20956;-65
2023/08/01 12:09:12;;;;;;;1.20;1.00;;;21.40;99.90;;;;;;5067184;28;20300;-65
2023/08/01 12:11:38;;;;;;;1.20;0.80;;;22.10;99.90;;;;;;5067421;28;20899;-65
2023/08/01 12:14:13;;;;;;;1.43;0.90;;;22.70;99.90;;;;;;5067708;28;20472;-66
2023/08/01 12:16:40;;;;;;;1.60;1.10;;;23.20;99.90;;;;;;5067346;28;20410;-66
2023/08/01 12:19:07;;;;;;;1.23;1.13;;;23.20;99.90;;;;;;5067343;28;20411;-66
2023/08/01 12:21:34;;;;;;;1.53;0.90;;;23.30;99.90;;;;;;5067485;28;20947;-66
2023/08/01 12:24:00;;;;;;;1.87;1.20;;;23.00;99.90;;;;;;5067514;28;20475;-66
2023/08/01 12:26:26;;;;;;;1.77;0.93;;;22.80;99.90;;;;;;5067647;28;20418;-65
2023/08/01 12:28:52;;;;;;;3.17;1.00;;;22.60;99.90;;;;;;5067538;28;20422;-66
2023/08/01 12:31:18;;;;;;;1.60;0.90;;;22.30;99.90;;;;;;5067144;28;20224;-66
2023/08/01 12:33:46;;;;;;;2.30;1.43;;;22.20;99.90;;;;;;5066948;28;20490;-66
2023/08/01 12:36:12;;;;;;;1.03;0.93;;;22.20;99.90;;;;;;5067386;28;20921;-66
2023/08/01 12:38:38;;;;;;;1.10;1.00;;;22.20;99.90;;;;;;5067218;28;20426;-66
2023/08/01 12:41:03;;;;;;;1.17;1.03;;;22.40;99.90;;;;;;5066992;28;20492;-66
2023/08/01 12:43:29;;;;;;;1.10;0.93;;;22.70;99.90;;;;;;5066817;28;20573;-66